sensor_id;sensor_type;location;lat;lon;timestamp;temperature;humidity
43949;DHT22;29429;51.074;13.764;2024-01-30T00:00:28;3.90;99.90
43949;DHT22;29429;51.074;13.764;2024-01-30T00:02:55;3.90;99.90
43949;DHT22;29429;51.074;13.764;2024-01-30T00:05:22;3.90;99.90
43949;DHT22;29429;51.074;13.764;2024-01-30T00:07:50;3.80;99.90
43949;DHT22;29429;51.074;13.764;2024-01-30T00:10:17;3.90;99.90
43949;DHT22;29429;51.074;13.764;2024-01-30T00:12:44;3.90;99.90
43949;DHT22;29429;51.074;13.764;2024-01-30T00:15:11;3.90;99.90
43949;DHT22;29429;51.074;13.764;2024-01-30T00:17:38;3.90;99.90
43949;DHT22;29429;51.074;13.764;2024-01-30T00:20:06;3.90;99.90
43949;DHT22;29429;51.074;13.764;2024-01-30T00:22:34;3.90;99.90
43949;DHT22;29429;51.074;13.764;2024-01-30T00:25:01;3.90;99.90
43949;DHT22;29429;51.074;13.764;2024-01-30T00:27:28;3.80;99.90
43949;DHT22;29429;51.074;13.764;2024-01-30T00:29:55;3.80;99.90
43949;DHT22;29429;51.074;13.764;2024-01-30T00:32:21;3.80;99.90
43949;DHT22;29429;51.074;13.764;2024-01-30T00:34:50;3.80;99.90
43949;DHT22;29429;51.074;13.764;2024-01-30T00:37:17;3.80;99.90
43949;DHT22;29429;51.074;13.764;2024-01-30T00:39:44;3.70;99.90
43949;DHT22;29429;51.074;13.764;2024-01-30T00:42:11;3.80;99.90
43949;DHT22;29429;51.074;13.764;2024-01-30T00:44:38;3.80;99.90
43949;DHT22;29429;51.074;13.764;2024-01-30T00:47:06;3.80;99.90
43949;DHT22;29429;51.074;13.764;2024-01-30T00:49:33;3.70;99.90
43949;DHT22;29429;51.074;13.764;2024-01-30T00:52:00;3.70;99.90
43949;DHT22;29429;51.074;13.764;2024-01-30T00:54:27;3.70;99.90
43949;DHT22;29429;51.074;13.764;2024-01-30T00:56:55;3.70;99.90
43949;DHT22;29429;51.074;13.764;2024-01-30T00:59:23;3.70;99.90
43949;DHT22;29429;51.074;13.764;2024-01-30T01:01:50;3.70;99.90
43949;DHT22;29429;51.074;13.764;2024-01-30T01:04:18;3.70;99.90
43949;DHT22;29429;51.074;13.764;2024-01-30T01:06:45;3.70;99.90
43949;DHT22;29429;51.074;13.764;2024-01-30T01:09:12;3.70;99.90
43949;DHT22;29429;51.074;13.764;2024-01-30T01:11:39;3.70;99.90
43949;DHT22;29429;51.074;13.764;2024-01-30T01:14:06;3.70;99.90
43949;DHT22;29429;51.074;13.764;2024-01-30T01:16:34;3.70;99.90
43949;DHT22;29429;51.074;13.764;2024-01-30T01:19:01;3.70;99.90
43949;DHT22;29429;51.074;13.764;2024-01-30T01:21:28;3.70;99.90
43949;DHT22;29429;51.074;13.764;2024-01-30T01:23:55;3.70;99.90
43949;DHT22;29429;51.074;13.764;2024-01-30T01:26:23;3.70;99.90
43949;DHT22;29429;51.074;13.764;2024-01-30T01:28:50;3.70;99.90
43949;DHT22;29429;51.074;13.764;2024-01-30T01:31:17;3.70;99.90
43949;DHT22;29429;51.074;13.764;2024-01-30T01:33:44;3.70;99.90
43949;DHT22;29429;51.074;13.764;2024-01-30T01:36:13;3.70;99.90
43949;DHT22;29429;51.074;13.764;2024-01-30T01:38:40;3.70;99.90
43949;DHT22;29429;51.074;13.764;2024-01-30T01:41:07;3.60;99.90
43949;DHT22;29429;51.074;13.764;2024-01-30T01:43:34;3.70;99.90
43949;DHT22;29429;51.074;13.764;2024-01-30T01:46:02;3.60;99.90
43949;DHT22;29429;51.074;13.764;2024-01-30T01:48:29;3.60;99.90
43949;DHT22;29429;51.074;13.764;2024-01-30T01:50:57;3.60;99.90
43949;DHT22;29429;51.074;13.764;2024-01-30T01:53:26;3.60;99.90
43949;DHT22;29429;51.074;13.764;2024-01-30T01:55:54;3.60;99.90
43949;DHT22;29429;51.074;13.764;2024-01-30T01:58:22;3.60;99.90
43949;DHT22;29429;51.074;13.764;2024-01-30T02:00:51;3.60;99.90
43949;DHT22;29429;51.074;13.764;2024-01-30T02:03:19;3.60;99.90
43949;DHT22;29429;51.074;13.764;2024-01-30T02:05:50;3.60;99.90
43949;DHT22;29429;51.074;13.764;2024-01-30T02:08:18;3.70;99.90
43949;DHT22;29429;51.074;13.764;2024-01-30T02:10:45;3.50;99.90
43949;DHT22;29429;51.074;13.764;2024-01-30T02:13:12;3.60;99.90
43949;DHT22;29429;51.074;13.764;2024-01-30T02:15:39;3.60;99.90
43949;DHT22;29429;51.074;13.764;2024-01-30T02:18:06;3.60;99.90
43949;DHT22;29429;51.074;13.764;2024-01-30T02:20:35;3.60;99.90
43949;DHT22;29429;51.074;13.764;2024-01-30T02:23:04;3.60;99.90
43949;DHT22;29429;51.074;13.764;2024-01-30T02:25:38;3.60;99.90
43949;DHT22;29429;51.074;13.764;2024-01-30T02:28:12;3.60;99.90
43949;DHT22;29429;51.074;13.764;2024-01-30T02:30:39;3.60;99.90
43949;DHT22;29429;51.074;13.764;2024-01-30T02:33:07;3.60;99.90
43949;DHT22;29429;51.074;13.764;2024-01-30T02:35:34;3.60;99.90
43949;DHT22;29429;51.074;13.764;2024-01-30T02:38:01;3.60;99.90
43949;DHT22;29429;51.074;13.764;2024-01-30T02:40:28;3.60;99.90
43949;DHT22;29429;51.074;13.764;2024-01-30T02:42:56;3.60;99.90
43949;DHT22;29429;51.074;13.764;2024-01-30T02:45:24;3.80;99.90
43949;DHT22;29429;51.074;13.764;2024-01-30T02:47:51;3.70;99.90
43949;DHT22;29429;51.074;13.764;2024-01-30T02:50:19;3.60;99.90
43949;DHT22;29429;51.074;13.764;2024-01-30T02:52:46;3.60;99.90
43949;DHT22;29429;51.074;13.764;2024-01-30T02:55:13;3.60;99.90
43949;DHT22;29429;51.074;13.764;2024-01-30T02:57:40;3.60;99.90
43949;DHT22;29429;51.074;13.764;2024-01-30T03:00:08;3.60;99.90
43949;DHT22;29429;51.074;13.764;2024-01-30T03:02:36;3.70;99.90
43949;DHT22;29429;51.074;13.764;2024-01-30T03:05:05;3.70;99.90
43949;DHT22;29429;51.074;13.764;2024-01-30T03:07:33;3.70;99.90
43949;DHT22;29429;51.074;13.764;2024-01-30T03:10:00;3.60;99.90
43949;DHT22;29429;51.074;13.764;2024-01-30T03:12:27;3.60;99.90
43949;DHT22;29429;51.074;13.764;2024-01-30T03:14:54;3.60;99.90
43949;DHT22;29429;51.074;13.764;2024-01-30T03:17:21;3.60;99.90
43949;DHT22;29429;51.074;13.764;2024-01-30T03:19:48;3.60;99.90
43949;DHT22;29429;51.074;13.764;2024-01-30T03:22:15;3.60;99.90
43949;DHT22;29429;51.074;13.764;2024-01-30T03:24:43;3.60;99.90
43949;DHT22;29429;51.074;13.764;2024-01-30T03:27:10;3.70;99.90
43949;DHT22;29429;51.074;13.764;2024-01-30T03:29:37;3.50;99.90
43949;DHT22;29429;51.074;13.764;2024-01-30T03:32:05;3.50;99.90
43949;DHT22;29429;51.074;13.764;2024-01-30T03:34:32;3.50;99.90
43949;DHT22;29429;51.074;13.764;2024-01-30T03:36:59;3.60;99.90
43949;DHT22;29429;51.074;13.764;2024-01-30T03:39:26;3.40;99.90
43949;DHT22;29429;51.074;13.764;2024-01-30T03:41:53;3.40;99.90
43949;DHT22;29429;51.074;13.764;2024-01-30T03:44:20;3.40;99.90
43949;DHT22;29429;51.074;13.764;2024-01-30T03:46:47;3.40;99.90
43949;DHT22;29429;51.074;13.764;2024-01-30T03:49:14;3.40;99.90
43949;DHT22;29429;51.074;13.764;2024-01-30T03:51:41;3.30;99.90
43949;DHT22;29429;51.074;13.764;2024-01-30T03:54:08;3.30;99.90
43949;DHT22;29429;51.074;13.764;2024-01-30T03:56:36;3.30;99.90
43949;DHT22;29429;51.074;13.764;2024-01-30T04:01:14;3.20;99.90
43949;DHT22;29429;51.074;13.764;2024-01-30T04:03:45;3.20;99.90
43949;DHT22;29429;51.074;13.764;2024-01-30T04:06:12;3.20;99.90
43949;DHT22;29429;51.074;13.764;2024-01-30T04:08:39;3.20;99.90
43949;DHT22;29429;51.074;13.764;2024-01-30T04:11:06;3.20;99.90
43949;DHT22;29429;51.074;13.764;2024-01-30T04:13:33;3.20;99.90
43949;DHT22;29429;51.074;13.764;2024-01-30T04:16:00;3.10;99.90
43949;DHT22;29429;51.074;13.764;2024-01-30T04:18:29;3.10;99.90
43949;DHT22;29429;51.074;13.764;2024-01-30T04:20:56;3.10;99.90
43949;DHT22;29429;51.074;13.764;2024-01-30T04:23:23;3.10;99.90
43949;DHT22;29429;51.074;13.764;2024-01-30T04:25:50;3.10;99.90
43949;DHT22;29429;51.074;13.764;2024-01-30T04:28:17;3.10;99.90
43949;DHT22;29429;51.074;13.764;2024-01-30T04:30:44;3.10;99.90
43949;DHT22;29429;51.074;13.764;2024-01-30T04:33:11;3.10;99.90
43949;DHT22;29429;51.074;13.764;2024-01-30T04:35:38;3.10;99.90
43949;DHT22;29429;51.074;13.764;2024-01-30T04:38:05;3.10;99.90
43949;DHT22;29429;51.074;13.764;2024-01-30T04:40:32;3.10;99.90
43949;DHT22;29429;51.074;13.764;2024-01-30T04:42:59;3.20;99.90
43949;DHT22;29429;51.074;13.764;2024-01-30T04:45:26;3.10;99.90
43949;DHT22;29429;51.074;13.764;2024-01-30T04:47:53;3.10;99.90
43949;DHT22;29429;51.074;13.764;2024-01-30T04:50:20;3.10;99.90
43949;DHT22;29429;51.074;13.764;2024-01-30T04:52:47;3.10;99.90
43949;DHT22;29429;51.074;13.764;2024-01-30T04:55:14;3.10;99.90
43949;DHT22;29429;51.074;13.764;2024-01-30T04:57:41;3.10;99.90
43949;DHT22;29429;51.074;13.764;2024-01-30T05:00:09;3.10;99.90
43949;DHT22;29429;51.074;13.764;2024-01-30T05:02:36;3.10;99.90
43949;DHT22;29429;51.074;13.764;2024-01-30T05:05:06;3.10;99.90
43949;DHT22;29429;51.074;13.764;2024-01-30T05:07:34;3.10;99.90
43949;DHT22;29429;51.074;13.764;2024-01-30T05:10:01;3.10;99.90
43949;DHT22;29429;51.074;13.764;2024-01-30T05:12:32;3.20;99.90
43949;DHT22;29429;51.074;13.764;2024-01-30T05:14:59;3.30;99.90
43949;DHT22;29429;51.074;13.764;2024-01-30T05:17:26;3.40;99.90
43949;DHT22;29429;51.074;13.764;2024-01-30T05:19:53;3.30;99.90
43949;DHT22;29429;51.074;13.764;2024-01-30T05:22:20;3.40;99.90
43949;DHT22;29429;51.074;13.764;2024-01-30T05:24:47;3.50;99.90
43949;DHT22;29429;51.074;13.764;2024-01-30T05:27:14;3.50;99.90
43949;DHT22;29429;51.074;13.764;2024-01-30T05:29:41;3.50;99.90
43949;DHT22;29429;51.074;13.764;2024-01-30T05:32:08;3.60;99.90
43949;DHT22;29429;51.074;13.764;2024-01-30T05:34:35;3.60;99.90
43949;DHT22;29429;51.074;13.764;2024-01-30T05:37:03;3.60;99.90
43949;DHT22;29429;51.074;13.764;2024-01-30T05:39:30;3.60;99.90
43949;DHT22;29429;51.074;13.764;2024-01-30T05:41:59;3.70;99.90
43949;DHT22;29429;51.074;13.764;2024-01-30T05:44:26;3.70;99.90
43949;DHT22;29429;51.074;13.764;2024-01-30T05:46:53;3.60;99.90
43949;DHT22;29429;51.074;13.764;2024-01-30T05:49:20;3.60;99.90
43949;DHT22;29429;51.074;13.764;2024-01-30T05:51:47;3.60;99.90
43949;DHT22;29429;51.074;13.764;2024-01-30T05:54:15;3.40;99.90
43949;DHT22;29429;51.074;13.764;2024-01-30T05:56:43;3.50;99.90
43949;DHT22;29429;51.074;13.764;2024-01-30T05:59:10;3.40;99.90
43949;DHT22;29429;51.074;13.764;2024-01-30T06:01:37;3.40;99.90
43949;DHT22;29429;51.074;13.764;2024-01-30T06:04:04;3.40;99.90
43949;DHT22;29429;51.074;13.764;2024-01-30T06:06:31;3.40;99.90
43949;DHT22;29429;51.074;13.764;2024-01-30T06:08:58;3.30;99.90
43949;DHT22;29429;51.074;13.764;2024-01-30T06:11:25;3.30;99.90
43949;DHT22;29429;51.074;13.764;2024-01-30T06:13:52;3.30;99.90
43949;DHT22;29429;51.074;13.764;2024-01-30T06:16:19;3.30;99.90
43949;DHT22;29429;51.074;13.764;2024-01-30T06:18:48;3.20;99.90
43949;DHT22;29429;51.074;13.764;2024-01-30T06:21:15;3.30;99.90
43949;DHT22;29429;51.074;13.764;2024-01-30T06:23:43;3.30;99.90
43949;DHT22;29429;51.074;13.764;2024-01-30T06:26:09;3.40;99.90
43949;DHT22;29429;51.074;13.764;2024-01-30T06:28:37;3.40;99.90
43949;DHT22;29429;51.074;13.764;2024-01-30T06:31:04;3.40;99.90
43949;DHT22;29429;51.074;13.764;2024-01-30T06:33:31;3.40;99.90
43949;DHT22;29429;51.074;13.764;2024-01-30T06:35:58;3.40;99.90
43949;DHT22;29429;51.074;13.764;2024-01-30T06:38:25;3.40;99.90
43949;DHT22;29429;51.074;13.764;2024-01-30T06:40:52;3.40;99.90
43949;DHT22;29429;51.074;13.764;2024-01-30T06:43:19;3.40;99.90
43949;DHT22;29429;51.074;13.764;2024-01-30T06:45:46;3.40;99.90
43949;DHT22;29429;51.074;13.764;2024-01-30T06:48:13;3.40;99.90
43949;DHT22;29429;51.074;13.764;2024-01-30T06:50:40;3.50;99.90
43949;DHT22;29429;51.074;13.764;2024-01-30T06:53:07;3.50;99.90
43949;DHT22;29429;51.074;13.764;2024-01-30T06:55:34;3.50;99.90
43949;DHT22;29429;51.074;13.764;2024-01-30T06:58:01;3.50;99.90
43949;DHT22;29429;51.074;13.764;2024-01-30T07:00:28;3.50;99.90
43949;DHT22;29429;51.074;13.764;2024-01-30T07:02:55;3.60;99.90
43949;DHT22;29429;51.074;13.764;2024-01-30T07:05:22;3.60;99.90
43949;DHT22;29429;51.074;13.764;2024-01-30T07:07:48;3.60;99.90
43949;DHT22;29429;51.074;13.764;2024-01-30T07:10:16;3.60;99.90
43949;DHT22;29429;51.074;13.764;2024-01-30T07:12:43;3.70;99.90
43949;DHT22;29429;51.074;13.764;2024-01-30T07:15:10;3.70;99.90
43949;DHT22;29429;51.074;13.764;2024-01-30T07:17:38;3.70;99.90
43949;DHT22;29429;51.074;13.764;2024-01-30T07:20:06;3.70;99.90
43949;DHT22;29429;51.074;13.764;2024-01-30T07:22:34;3.80;99.90
43949;DHT22;29429;51.074;13.764;2024-01-30T07:25:01;3.80;99.90
43949;DHT22;29429;51.074;13.764;2024-01-30T07:27:28;3.80;99.90
43949;DHT22;29429;51.074;13.764;2024-01-30T07:29:55;3.90;99.90
43949;DHT22;29429;51.074;13.764;2024-01-30T07:32:22;3.90;99.90
43949;DHT22;29429;51.074;13.764;2024-01-30T07:34:49;4.00;99.90
43949;DHT22;29429;51.074;13.764;2024-01-30T07:37:32;4.00;99.90
43949;DHT22;29429;51.074;13.764;2024-01-30T07:40:00;4.10;99.90
43949;DHT22;29429;51.074;13.764;2024-01-30T07:42:28;4.10;99.90
43949;DHT22;29429;51.074;13.764;2024-01-30T07:44:55;4.10;99.90
43949;DHT22;29429;51.074;13.764;2024-01-30T07:47:22;4.20;99.90
43949;DHT22;29429;51.074;13.764;2024-01-30T07:49:49;4.20;99.90
43949;DHT22;29429;51.074;13.764;2024-01-30T07:52:16;4.50;99.90
43949;DHT22;29429;51.074;13.764;2024-01-30T07:54:43;4.30;99.90
43949;DHT22;29429;51.074;13.764;2024-01-30T07:57:10;4.40;99.90
43949;DHT22;29429;51.074;13.764;2024-01-30T07:59:37;4.50;99.90
43949;DHT22;29429;51.074;13.764;2024-01-30T08:02:04;4.60;99.90
43949;DHT22;29429;51.074;13.764;2024-01-30T08:04:31;4.70;99.90
43949;DHT22;29429;51.074;13.764;2024-01-30T08:06:58;4.80;99.90
43949;DHT22;29429;51.074;13.764;2024-01-30T08:09:25;4.80;99.90
43949;DHT22;29429;51.074;13.764;2024-01-30T08:11:52;4.90;99.90
43949;DHT22;29429;51.074;13.764;2024-01-30T08:14:19;5.00;99.90
43949;DHT22;29429;51.074;13.764;2024-01-30T08:16:46;5.10;99.90
43949;DHT22;29429;51.074;13.764;2024-01-30T08:19:14;5.20;99.90
43949;DHT22;29429;51.074;13.764;2024-01-30T08:21:42;5.20;99.90
43949;DHT22;29429;51.074;13.764;2024-01-30T08:24:09;5.30;99.90
43949;DHT22;29429;51.074;13.764;2024-01-30T08:26:36;5.40;99.90
43949;DHT22;29429;51.074;13.764;2024-01-30T08:29:03;5.50;99.90
43949;DHT22;29429;51.074;13.764;2024-01-30T08:31:30;5.50;99.90
43949;DHT22;29429;51.074;13.764;2024-01-30T08:33:58;5.60;99.90
43949;DHT22;29429;51.074;13.764;2024-01-30T08:36:25;5.70;99.90
43949;DHT22;29429;51.074;13.764;2024-01-30T08:38:52;5.70;99.90
43949;DHT22;29429;51.074;13.764;2024-01-30T08:41:26;5.70;99.90
43949;DHT22;29429;51.074;13.764;2024-01-30T08:43:53;5.80;99.90
43949;DHT22;29429;51.074;13.764;2024-01-30T08:46:21;5.80;99.90
43949;DHT22;29429;51.074;13.764;2024-01-30T08:48:48;5.90;99.90
43949;DHT22;29429;51.074;13.764;2024-01-30T08:51:15;5.90;99.90
43949;DHT22;29429;51.074;13.764;2024-01-30T08:53:42;6.00;99.90
43949;DHT22;29429;51.074;13.764;2024-01-30T08:56:09;6.10;99.90
43949;DHT22;29429;51.074;13.764;2024-01-30T08:58:36;6.10;99.90
43949;DHT22;29429;51.074;13.764;2024-01-30T09:01:04;6.30;99.90
43949;DHT22;29429;51.074;13.764;2024-01-30T09:03:32;6.20;99.90
43949;DHT22;29429;51.074;13.764;2024-01-30T09:05:59;6.30;99.90
43949;DHT22;29429;51.074;13.764;2024-01-30T09:08:26;6.40;99.90
43949;DHT22;29429;51.074;13.764;2024-01-30T09:10:54;6.40;99.90
43949;DHT22;29429;51.074;13.764;2024-01-30T09:13:21;6.40;99.90
43949;DHT22;29429;51.074;13.764;2024-01-30T09:15:48;6.50;99.90
43949;DHT22;29429;51.074;13.764;2024-01-30T09:18:15;6.50;99.90
43949;DHT22;29429;51.074;13.764;2024-01-30T09:20:43;6.60;99.90
43949;DHT22;29429;51.074;13.764;2024-01-30T09:23:09;6.60;99.90
43949;DHT22;29429;51.074;13.764;2024-01-30T09:25:37;6.60;99.90
43949;DHT22;29429;51.074;13.764;2024-01-30T09:28:05;6.60;99.90
43949;DHT22;29429;51.074;13.764;2024-01-30T09:30:32;6.70;99.90
43949;DHT22;29429;51.074;13.764;2024-01-30T09:32:59;6.60;99.90
43949;DHT22;29429;51.074;13.764;2024-01-30T09:35:27;6.70;99.90
43949;DHT22;29429;51.074;13.764;2024-01-30T09:37:54;6.80;99.90
43949;DHT22;29429;51.074;13.764;2024-01-30T09:40:21;6.80;99.90
43949;DHT22;29429;51.074;13.764;2024-01-30T09:42:50;6.80;99.90
43949;DHT22;29429;51.074;13.764;2024-01-30T09:45:18;6.80;99.90
43949;DHT22;29429;51.074;13.764;2024-01-30T09:47:46;6.70;99.90
43949;DHT22;29429;51.074;13.764;2024-01-30T09:50:14;6.80;99.90
43949;DHT22;29429;51.074;13.764;2024-01-30T09:52:44;6.80;99.90
43949;DHT22;29429;51.074;13.764;2024-01-30T09:55:12;6.80;99.90
43949;DHT22;29429;51.074;13.764;2024-01-30T09:57:42;6.70;99.90
43949;DHT22;29429;51.074;13.764;2024-01-30T10:00:09;6.80;99.90
43949;DHT22;29429;51.074;13.764;2024-01-30T10:02:39;6.70;99.90
43949;DHT22;29429;51.074;13.764;2024-01-30T10:05:08;6.70;99.90
43949;DHT22;29429;51.074;13.764;2024-01-30T10:07:35;6.70;99.90
43949;DHT22;29429;51.074;13.764;2024-01-30T10:10:04;6.70;99.90
43949;DHT22;29429;51.074;13.764;2024-01-30T10:12:33;6.70;99.90
43949;DHT22;29429;51.074;13.764;2024-01-30T10:15:00;6.80;99.90
43949;DHT22;29429;51.074;13.764;2024-01-30T10:17:27;6.80;99.90
43949;DHT22;29429;51.074;13.764;2024-01-30T10:19:59;7.00;99.90
43949;DHT22;29429;51.074;13.764;2024-01-30T10:22:28;7.00;99.90
43949;DHT22;29429;51.074;13.764;2024-01-30T10:24:55;6.90;99.90
43949;DHT22;29429;51.074;13.764;2024-01-30T10:27:26;6.90;99.90
43949;DHT22;29429;51.074;13.764;2024-01-30T10:29:54;6.90;99.90
43949;DHT22;29429;51.074;13.764;2024-01-30T10:32:21;6.90;99.90
43949;DHT22;29429;51.074;13.764;2024-01-30T10:34:48;6.90;99.90
43949;DHT22;29429;51.074;13.764;2024-01-30T10:37:15;7.00;99.90
43949;DHT22;29429;51.074;13.764;2024-01-30T10:39:44;7.00;99.90
43949;DHT22;29429;51.074;13.764;2024-01-30T10:42:15;7.00;99.90
43949;DHT22;29429;51.074;13.764;2024-01-30T10:47:43;7.00;99.90
43949;DHT22;29429;51.074;13.764;2024-01-30T10:50:15;7.10;99.90
43949;DHT22;29429;51.074;13.764;2024-01-30T10:52:43;7.10;99.90
43949;DHT22;29429;51.074;13.764;2024-01-30T10:55:10;7.10;99.90
43949;DHT22;29429;51.074;13.764;2024-01-30T10:57:38;7.20;99.90
43949;DHT22;29429;51.074;13.764;2024-01-30T11:00:14;7.40;99.90
43949;DHT22;29429;51.074;13.764;2024-01-30T11:02:47;7.30;99.90
43949;DHT22;29429;51.074;13.764;2024-01-30T11:05:14;7.30;99.90
43949;DHT22;29429;51.074;13.764;2024-01-30T11:07:44;7.30;99.90
43949;DHT22;29429;51.074;13.764;2024-01-30T11:10:12;7.30;99.90
43949;DHT22;29429;51.074;13.764;2024-01-30T11:12:42;7.30;99.90
43949;DHT22;29429;51.074;13.764;2024-01-30T11:15:15;7.30;99.90
43949;DHT22;29429;51.074;13.764;2024-01-30T11:20:29;7.30;99.90
43949;DHT22;29429;51.074;13.764;2024-01-30T11:23:02;7.20;99.90
43949;DHT22;29429;51.074;13.764;2024-01-30T11:25:33;7.30;99.90
43949;DHT22;29429;51.074;13.764;2024-01-30T11:28:01;7.40;99.90
43949;DHT22;29429;51.074;13.764;2024-01-30T11:30:32;7.40;99.90
43949;DHT22;29429;51.074;13.764;2024-01-30T11:33:07;7.30;99.90
43949;DHT22;29429;51.074;13.764;2024-01-30T11:35:42;7.20;99.90
43949;DHT22;29429;51.074;13.764;2024-01-30T11:38:14;7.30;99.90
43949;DHT22;29429;51.074;13.764;2024-01-30T11:40:41;7.30;99.90
43949;DHT22;29429;51.074;13.764;2024-01-30T11:43:10;7.50;99.90
43949;DHT22;29429;51.074;13.764;2024-01-30T11:45:38;7.40;99.90
43949;DHT22;29429;51.074;13.764;2024-01-30T11:48:06;7.40;99.90
43949;DHT22;29429;51.074;13.764;2024-01-30T11:50:38;7.40;99.90
43949;DHT22;29429;51.074;13.764;2024-01-30T11:53:06;7.50;99.90
43949;DHT22;29429;51.074;13.764;2024-01-30T11:55:34;7.40;99.90
43949;DHT22;29429;51.074;13.764;2024-01-30T11:58:04;7.50;99.90
43949;DHT22;29429;51.074;13.764;2024-01-30T12:00:31;7.60;99.90
43949;DHT22;29429;51.074;13.764;2024-01-30T12:03:00;7.60;99.90
43949;DHT22;29429;51.074;13.764;2024-01-30T12:05:28;7.60;99.90
43949;DHT22;29429;51.074;13.764;2024-01-30T12:07:56;7.60;99.90
43949;DHT22;29429;51.074;13.764;2024-01-30T12:10:26;7.70;99.90
43949;DHT22;29429;51.074;13.764;2024-01-30T12:12:54;7.70;99.90
43949;DHT22;29429;51.074;13.764;2024-01-30T12:15:22;7.70;99.90
43949;DHT22;29429;51.074;13.764;2024-01-30T12:17:49;7.70;99.90
43949;DHT22;29429;51.074;13.764;2024-01-30T12:20:20;7.70;99.90
43949;DHT22;29429;51.074;13.764;2024-01-30T12:22:49;7.70;99.90
43949;DHT22;29429;51.074;13.764;2024-01-30T12:25:18;7.70;99.90
43949;DHT22;29429;51.074;13.764;2024-01-30T12:27:48;7.60;99.90
43949;DHT22;29429;51.074;13.764;2024-01-30T12:30:20;7.60;99.90
43949;DHT22;29429;51.074;13.764;2024-01-30T12:32:50;7.60;99.90
43949;DHT22;29429;51.074;13.764;2024-01-30T12:35:19;7.50;99.90
43949;DHT22;29429;51.074;13.764;2024-01-30T12:37:49;7.50;99.90
43949;DHT22;29429;51.074;13.764;2024-01-30T12:40:17;7.50;99.90
43949;DHT22;29429;51.074;13.764;2024-01-30T12:42:47;7.50;99.90
43949;DHT22;29429;51.074;13.764;2024-01-30T12:45:17;7.50;99.90
43949;DHT22;29429;51.074;13.764;2024-01-30T12:47:50;7.50;99.90
43949;DHT22;29429;51.074;13.764;2024-01-30T12:50:17;7.50;99.90
43949;DHT22;29429;51.074;13.764;2024-01-30T12:52:45;7.50;99.90
43949;DHT22;29429;51.074;13.764;2024-01-30T12:55:16;7.50;99.90
43949;DHT22;29429;51.074;13.764;2024-01-30T12:57:44;7.50;99.90
43949;DHT22;29429;51.074;13.764;2024-01-30T13:00:11;7.50;99.90
43949;DHT22;29429;51.074;13.764;2024-01-30T13:02:38;7.50;99.90
43949;DHT22;29429;51.074;13.764;2024-01-30T13:05:05;7.40;99.90
43949;DHT22;29429;51.074;13.764;2024-01-30T13:07:33;7.40;99.90
43949;DHT22;29429;51.074;13.764;2024-01-30T13:10:01;7.30;99.90
43949;DHT22;29429;51.074;13.764;2024-01-30T13:12:31;7.30;99.90
43949;DHT22;29429;51.074;13.764;2024-01-30T13:15:00;7.20;99.90
43949;DHT22;29429;51.074;13.764;2024-01-30T13:17:32;7.20;99.90
43949;DHT22;29429;51.074;13.764;2024-01-30T13:20:00;7.20;99.90
43949;DHT22;29429;51.074;13.764;2024-01-30T13:22:36;7.30;99.90
43949;DHT22;29429;51.074;13.764;2024-01-30T13:25:05;7.30;99.90
43949;DHT22;29429;51.074;13.764;2024-01-30T13:27:33;7.30;99.90
43949;DHT22;29429;51.074;13.764;2024-01-30T13:30:00;7.40;99.90
43949;DHT22;29429;51.074;13.764;2024-01-30T13:32:27;7.40;99.90
43949;DHT22;29429;51.074;13.764;2024-01-30T13:34:54;7.50;99.90
43949;DHT22;29429;51.074;13.764;2024-01-30T13:37:22;7.50;99.90
43949;DHT22;29429;51.074;13.764;2024-01-30T13:39:50;7.50;99.90
43949;DHT22;29429;51.074;13.764;2024-01-30T13:42:17;7.50;99.90
43949;DHT22;29429;51.074;13.764;2024-01-30T13:44:44;7.50;99.90
43949;DHT22;29429;51.074;13.764;2024-01-30T13:47:11;7.50;99.90
43949;DHT22;29429;51.074;13.764;2024-01-30T13:49:38;7.50;99.90
43949;DHT22;29429;51.074;13.764;2024-01-30T13:52:05;7.50;99.90
43949;DHT22;29429;51.074;13.764;2024-01-30T13:54:32;7.40;99.90
43949;DHT22;29429;51.074;13.764;2024-01-30T13:56:59;7.40;99.90
43949;DHT22;29429;51.074;13.764;2024-01-30T13:59:27;7.40;99.90
43949;DHT22;29429;51.074;13.764;2024-01-30T14:01:54;7.30;99.90
43949;DHT22;29429;51.074;13.764;2024-01-30T14:04:21;7.30;99.90
43949;DHT22;29429;51.074;13.764;2024-01-30T14:06:48;7.30;99.90
43949;DHT22;29429;51.074;13.764;2024-01-30T14:09:26;7.20;99.90
43949;DHT22;29429;51.074;13.764;2024-01-30T14:11:54;7.20;99.90
43949;DHT22;29429;51.074;13.764;2024-01-30T14:14:21;7.20;99.90
43949;DHT22;29429;51.074;13.764;2024-01-30T14:16:48;7.10;99.90
43949;DHT22;29429;51.074;13.764;2024-01-30T14:19:15;7.10;99.90
43949;DHT22;29429;51.074;13.764;2024-01-30T14:21:42;7.10;99.90
43949;DHT22;29429;51.074;13.764;2024-01-30T14:24:10;7.00;99.90
43949;DHT22;29429;51.074;13.764;2024-01-30T14:26:37;7.00;99.90
43949;DHT22;29429;51.074;13.764;2024-01-30T14:29:04;6.90;99.90
43949;DHT22;29429;51.074;13.764;2024-01-30T14:31:31;6.90;99.90
43949;DHT22;29429;51.074;13.764;2024-01-30T14:33:59;6.90;99.90
43949;DHT22;29429;51.074;13.764;2024-01-30T14:36:27;6.80;99.90
43949;DHT22;29429;51.074;13.764;2024-01-30T14:38:55;6.70;99.90
43949;DHT22;29429;51.074;13.764;2024-01-30T14:41:22;6.70;99.90
43949;DHT22;29429;51.074;13.764;2024-01-30T14:43:49;6.60;99.90
43949;DHT22;29429;51.074;13.764;2024-01-30T14:46:16;6.60;99.90
43949;DHT22;29429;51.074;13.764;2024-01-30T14:48:44;6.50;99.90
43949;DHT22;29429;51.074;13.764;2024-01-30T14:51:11;6.40;99.90
43949;DHT22;29429;51.074;13.764;2024-01-30T14:53:38;6.40;99.90
43949;DHT22;29429;51.074;13.764;2024-01-30T14:56:05;6.40;99.90
43949;DHT22;29429;51.074;13.764;2024-01-30T14:58:33;6.30;99.90
43949;DHT22;29429;51.074;13.764;2024-01-30T15:01:00;6.30;99.90
43949;DHT22;29429;51.074;13.764;2024-01-30T15:03:27;6.30;99.90
43949;DHT22;29429;51.074;13.764;2024-01-30T15:05:56;6.30;99.90
43949;DHT22;29429;51.074;13.764;2024-01-30T15:08:23;6.20;99.90
43949;DHT22;29429;51.074;13.764;2024-01-30T15:10:50;6.10;99.90
43949;DHT22;29429;51.074;13.764;2024-01-30T15:13:17;6.10;99.90
43949;DHT22;29429;51.074;13.764;2024-01-30T15:15:44;6.00;99.90
43949;DHT22;29429;51.074;13.764;2024-01-30T15:18:11;5.90;99.90
43949;DHT22;29429;51.074;13.764;2024-01-30T15:20:39;5.90;99.90
43949;DHT22;29429;51.074;13.764;2024-01-30T15:23:06;5.80;99.90
43949;DHT22;29429;51.074;13.764;2024-01-30T15:25:33;5.70;99.90
43949;DHT22;29429;51.074;13.764;2024-01-30T15:28:00;5.70;99.90
43949;DHT22;29429;51.074;13.764;2024-01-30T15:30:27;5.60;99.90
43949;DHT22;29429;51.074;13.764;2024-01-30T15:32:54;5.60;99.90
43949;DHT22;29429;51.074;13.764;2024-01-30T15:35:21;5.50;99.90
43949;DHT22;29429;51.074;13.764;2024-01-30T15:37:48;5.60;99.90
43949;DHT22;29429;51.074;13.764;2024-01-30T15:40:15;5.50;99.90